createdAt,value
2018-06-13T00:02:01.159Z,7.40
2018-06-13T00:04:30.084Z,6.20
2018-06-13T00:06:59.832Z,5.47
2018-06-13T00:09:28.813Z,6.20
2018-06-13T00:11:57.684Z,5.50
2018-06-13T00:14:26.524Z,5.60
2018-06-13T00:16:55.380Z,6.67
2018-06-13T00:19:24.275Z,5.60
2018-06-13T00:21:53.166Z,6.27
2018-06-13T00:24:22.056Z,5.50
2018-06-13T00:26:51.071Z,6.10
2018-06-13T00:29:20.044Z,5.80
2018-06-13T00:31:49.119Z,6.10
2018-06-13T00:34:18.004Z,6.37
2018-06-13T00:36:46.834Z,6.40
2018-06-13T00:39:15.778Z,6.07
2018-06-13T00:41:44.639Z,6.50
2018-06-13T00:44:13.478Z,5.37
2018-06-13T00:52:50.107Z,5.63
2018-06-13T00:55:19.036Z,5.07
2018-06-13T00:57:47.987Z,5.50
2018-06-13T01:00:16.821Z,5.77
2018-06-13T01:02:45.597Z,5.00
2018-06-13T01:05:14.422Z,6.53
2018-06-13T01:07:43.335Z,5.67
2018-06-13T01:10:12.226Z,5.10
2018-06-13T01:12:41.110Z,5.70
2018-06-13T01:15:09.962Z,5.20
2018-06-13T01:17:38.802Z,5.50
2018-06-13T01:20:07.676Z,5.87
2018-06-13T01:22:36.407Z,4.63
2018-06-13T01:25:05.312Z,5.70
2018-06-13T01:27:34.061Z,4.80
2018-06-13T01:30:03.088Z,5.37
2018-06-13T01:32:31.867Z,5.83
2018-06-13T01:35:00.688Z,6.63
2018-06-13T01:37:29.587Z,5.70
2018-06-13T01:39:58.500Z,5.83
2018-06-13T01:42:27.358Z,4.90
2018-06-13T01:44:56.111Z,4.90
2018-06-13T01:47:24.990Z,5.00
2018-06-13T01:49:53.867Z,5.50
2018-06-13T01:52:22.795Z,4.40
2018-06-13T01:54:51.651Z,4.83
2018-06-13T01:57:20.730Z,5.27
2018-06-13T01:59:49.628Z,6.73
2018-06-13T02:02:18.474Z,5.40
2018-06-13T02:04:47.226Z,5.00
2018-06-13T02:07:16.088Z,5.10
2018-06-13T02:09:44.996Z,4.70
2018-06-13T02:12:13.870Z,5.53
2018-06-13T02:14:42.723Z,5.30
2018-06-13T02:17:11.556Z,5.93
2018-06-13T02:19:40.583Z,5.50
2018-06-13T02:22:09.509Z,5.57
2018-06-13T02:24:38.431Z,5.47
2018-06-13T02:27:07.315Z,5.00
2018-06-13T02:29:38.590Z,5.93
2018-06-13T02:32:07.500Z,5.67
2018-06-13T02:34:36.356Z,4.90
2018-06-13T02:37:05.335Z,5.20
2018-06-13T02:39:34.241Z,5.50
2018-06-13T02:42:03.217Z,5.93
2018-06-13T02:44:32.123Z,5.50
2018-06-13T02:47:00.984Z,4.87
2018-06-13T02:49:29.911Z,6.20
2018-06-13T02:51:58.828Z,5.07
2018-06-13T02:54:27.652Z,5.00
2018-06-13T02:56:56.539Z,5.50
2018-06-13T02:59:25.359Z,5.50
2018-06-13T03:01:54.243Z,5.97
2018-06-13T03:04:23.108Z,5.93
2018-06-13T03:06:51.971Z,5.63
2018-06-13T03:09:20.951Z,6.30
2018-06-13T03:11:49.806Z,5.07
2018-06-13T03:14:18.726Z,5.73
2018-06-13T03:16:47.588Z,5.30
2018-06-13T03:19:17.761Z,5.47
2018-06-13T03:21:46.595Z,5.77
2018-06-13T03:24:15.458Z,5.63
2018-06-13T03:26:44.208Z,5.93
2018-06-13T03:29:13.180Z,6.40
2018-06-13T03:31:42.069Z,5.80
2018-06-13T03:34:10.908Z,6.30
2018-06-13T03:36:39.677Z,6.03
2018-06-13T03:39:09.033Z,5.60
2018-06-13T03:41:37.894Z,6.33
2018-06-13T03:44:06.967Z,5.90
2018-06-13T03:46:35.810Z,6.10
2018-06-13T03:49:04.732Z,6.40
2018-06-13T03:51:33.624Z,6.60
2018-06-13T03:54:02.487Z,7.20
2018-06-13T03:56:31.889Z,6.87
2018-06-13T03:59:01.032Z,7.03
2018-06-13T04:01:30.057Z,5.93
2018-06-13T04:03:58.967Z,6.80
2018-06-13T04:06:27.821Z,5.93
2018-06-13T04:08:57.097Z,6.43
2018-06-13T04:11:26.336Z,6.67
2018-06-13T04:13:55.486Z,6.50
2018-06-13T04:16:24.414Z,6.40
2018-06-13T04:18:53.602Z,6.93
2018-06-13T04:21:22.800Z,6.90
2018-06-13T04:23:51.559Z,6.37
2018-06-13T04:26:20.488Z,7.17
2018-06-13T04:28:49.497Z,6.63
2018-06-13T04:31:18.364Z,6.80
2018-06-13T04:33:47.214Z,6.10
2018-06-13T04:36:16.031Z,6.63
2018-06-13T04:38:45.443Z,6.37
2018-06-13T04:41:14.908Z,6.87
2018-06-13T04:43:44.052Z,6.87
2018-06-13T04:46:13.201Z,7.50
2018-06-13T04:48:42.147Z,7.83
2018-06-13T04:51:11.354Z,6.50
2018-06-13T04:53:40.224Z,9.80
2018-06-13T04:56:09.699Z,9.47
2018-06-13T04:58:38.729Z,8.10
2018-06-13T05:01:08.462Z,7.70
2018-06-13T05:03:37.550Z,8.10
2018-06-13T05:06:06.669Z,7.13
2018-06-13T05:08:35.636Z,8.20
2018-06-13T05:11:06.346Z,6.90
2018-06-13T05:13:35.243Z,8.20
2018-06-13T05:16:04.043Z,6.27
2018-06-13T05:18:32.844Z,6.30
2018-06-13T05:21:01.707Z,6.47
2018-06-13T05:23:30.504Z,6.27
2018-06-13T05:25:59.228Z,6.70
2018-06-13T05:28:29.134Z,6.70
2018-06-13T05:30:58.013Z,5.40
2018-06-13T05:33:26.998Z,4.90
2018-06-13T05:35:55.863Z,5.60
2018-06-13T05:38:24.815Z,5.07
2018-06-13T05:40:53.678Z,5.67
2018-06-13T05:43:22.520Z,4.37
2018-06-13T05:45:51.364Z,4.67
2018-06-13T05:48:20.234Z,5.60
2018-06-13T05:50:48.961Z,5.33
2018-06-13T05:53:17.784Z,4.57
2018-06-13T05:55:46.652Z,5.07
2018-06-13T05:58:15.591Z,4.30
2018-06-13T06:00:44.349Z,7.00
2018-06-13T06:03:13.227Z,5.40
2018-06-13T06:05:42.076Z,4.87
2018-06-13T06:08:10.992Z,4.63
2018-06-13T06:10:39.848Z,5.10
2018-06-13T06:13:08.709Z,4.70
2018-06-13T06:15:37.555Z,5.50
2018-06-13T06:18:06.457Z,5.13
2018-06-13T06:20:35.379Z,4.60
2018-06-13T06:23:04.233Z,4.57
2018-06-13T06:25:33.139Z,3.87
2018-06-13T06:28:02.024Z,4.77
2018-06-13T06:30:31.215Z,4.57
2018-06-13T06:33:00.096Z,8.03
2018-06-13T06:35:29.793Z,6.00
2018-06-13T06:37:58.662Z,6.00
2018-06-13T06:40:27.402Z,5.20
2018-06-13T06:42:56.227Z,4.67
2018-06-13T06:45:24.967Z,3.83
2018-06-13T06:47:53.818Z,4.67
2018-06-13T06:50:22.963Z,4.83
2018-06-13T06:52:51.994Z,4.40
2018-06-13T06:55:20.760Z,4.40
2018-06-13T06:57:49.624Z,18.23
2018-06-13T07:00:25.178Z,5.27
2018-06-13T07:02:54.020Z,4.83
2018-06-13T07:05:22.733Z,4.53
2018-06-13T07:07:51.734Z,5.60
2018-06-13T07:10:20.590Z,4.67
2018-06-13T07:12:49.334Z,5.27
2018-06-13T07:15:18.195Z,5.27
2018-06-13T07:17:47.055Z,4.57
2018-06-13T07:20:15.799Z,4.80
2018-06-13T07:22:44.618Z,4.40
2018-06-13T07:25:13.349Z,4.87
2018-06-13T07:27:42.203Z,3.90
2018-06-13T07:30:10.945Z,4.17
2018-06-13T07:32:39.783Z,4.83
2018-06-13T07:35:08.640Z,4.10
2018-06-13T07:37:37.492Z,4.03
2018-06-13T07:40:06.474Z,4.60
2018-06-13T07:42:35.301Z,4.00
2018-06-13T07:45:04.233Z,4.10
2018-06-13T07:47:32.967Z,4.80
2018-06-13T07:50:01.851Z,5.10
2018-06-13T07:52:30.671Z,4.70
2018-06-13T07:54:59.528Z,4.17
2018-06-13T07:57:28.336Z,3.87
2018-06-13T07:59:57.251Z,5.10
2018-06-13T08:02:26.059Z,5.00
2018-06-13T08:04:54.895Z,4.87
2018-06-13T08:07:23.748Z,4.53
2018-06-13T08:09:52.663Z,4.43
2018-06-13T08:12:21.515Z,3.90
2018-06-13T08:14:50.316Z,3.90
2018-06-13T08:17:19.229Z,4.43
2018-06-13T08:19:48.077Z,4.60
2018-06-13T08:22:16.897Z,3.63
2018-06-13T08:24:55.336Z,4.07
2018-06-13T08:27:24.199Z,5.10
2018-06-13T08:29:52.977Z,4.67
2018-06-13T08:32:21.727Z,4.27
2018-06-13T08:34:50.552Z,4.80
2018-06-13T08:37:19.383Z,4.50
2018-06-13T08:39:48.252Z,4.83
2018-06-13T08:42:17.088Z,4.70
2018-06-13T08:44:45.916Z,5.07
2018-06-13T08:47:14.792Z,4.10
2018-06-13T08:49:43.614Z,4.70
2018-06-13T08:52:12.439Z,3.77
2018-06-13T08:54:41.267Z,3.63
2018-06-13T08:57:10.091Z,4.37
2018-06-13T08:59:38.944Z,4.93
2018-06-13T09:02:07.695Z,4.07
2018-06-13T09:04:36.518Z,3.47
2018-06-13T09:07:05.344Z,3.90
2018-06-13T09:09:34.278Z,4.50
2018-06-13T09:12:03.155Z,5.37
2018-06-13T09:14:32.005Z,4.50
2018-06-13T09:17:00.852Z,4.57
2018-06-13T09:19:29.824Z,3.67
2018-06-13T09:21:58.647Z,4.60
2018-06-13T09:24:27.462Z,3.93
2018-06-13T09:26:56.295Z,3.87
2018-06-13T09:29:25.115Z,3.97
2018-06-13T09:31:53.866Z,4.20
2018-06-13T09:34:22.700Z,3.73
2018-06-13T09:36:51.422Z,4.30
2018-06-13T09:39:20.335Z,4.83
2018-06-13T09:41:54.639Z,4.20
2018-06-13T09:44:23.503Z,4.00
2018-06-13T09:46:52.328Z,3.77
2018-06-13T09:49:21.178Z,3.50
2018-06-13T09:51:50.012Z,3.70
2018-06-13T09:54:18.856Z,3.83
2018-06-13T09:56:47.739Z,4.07
2018-06-13T09:59:19.324Z,3.97
2018-06-13T10:01:54.419Z,3.90
2018-06-13T10:04:23.153Z,3.53
2018-06-13T10:06:51.975Z,3.43
2018-06-13T10:09:20.829Z,4.00
2018-06-13T10:11:49.672Z,3.23
2018-06-13T10:14:18.488Z,3.00
2018-06-13T10:16:47.346Z,3.53
2018-06-13T10:19:16.307Z,3.93
2018-06-13T10:21:45.175Z,3.20
2018-06-13T10:24:14.015Z,3.33
2018-06-13T10:26:42.888Z,3.93
2018-06-13T10:29:11.706Z,4.63
2018-06-13T10:31:40.687Z,4.20
2018-06-13T10:34:09.512Z,3.37
2018-06-13T10:36:38.361Z,4.00
2018-06-13T10:39:08.203Z,3.20
2018-06-13T10:41:37.016Z,4.10
2018-06-13T10:44:05.892Z,4.07
2018-06-13T10:46:34.736Z,3.63
2018-06-13T10:49:03.676Z,3.10
2018-06-13T10:51:32.532Z,3.40
2018-06-13T10:54:01.360Z,3.90
2018-06-13T10:56:30.219Z,3.43
2018-06-13T10:58:59.118Z,4.00
2018-06-13T11:01:27.954Z,3.60
2018-06-13T11:03:56.810Z,2.80
2018-06-13T11:06:25.635Z,3.20
2018-06-13T11:08:54.515Z,2.90
2018-06-13T11:11:23.326Z,3.60
2018-06-13T11:13:52.155Z,3.10
2018-06-13T11:16:21.008Z,3.80
2018-06-13T11:18:49.936Z,3.87
2018-06-13T11:21:18.837Z,2.93
2018-06-13T11:23:47.658Z,3.93
2018-06-13T11:26:16.504Z,3.30
2018-06-13T11:28:45.404Z,3.67
2018-06-13T11:31:14.252Z,2.90
2018-06-13T11:33:43.088Z,3.00
2018-06-13T11:36:11.955Z,3.50
2018-06-13T11:38:40.872Z,3.90
2018-06-13T11:41:09.711Z,3.40
2018-06-13T11:43:38.551Z,3.50
2018-06-13T11:46:07.443Z,3.57
2018-06-13T11:48:36.320Z,3.50
2018-06-13T11:51:05.247Z,3.73
2018-06-13T11:53:34.117Z,3.80
2018-06-13T11:56:03.008Z,3.87
2018-06-13T11:58:31.924Z,3.70
2018-06-13T12:01:00.755Z,3.50
2018-06-13T12:03:29.604Z,3.40
2018-06-13T12:05:59.083Z,3.37
2018-06-13T12:08:28.527Z,3.80
2018-06-13T12:10:57.434Z,3.70
2018-06-13T12:13:26.195Z,3.70
2018-06-13T12:15:55.045Z,3.73
2018-06-13T12:18:24.009Z,4.03
2018-06-13T12:21:56.486Z,3.60
2018-06-13T12:24:25.338Z,4.47
2018-06-13T12:26:55.162Z,4.37
2018-06-13T12:29:24.239Z,3.90
2018-06-13T12:31:53.191Z,3.40
2018-06-13T12:34:22.023Z,3.53
2018-06-13T12:36:50.875Z,4.30
2018-06-13T12:39:19.745Z,4.27
2018-06-13T12:41:48.584Z,4.00
2018-06-13T12:44:17.462Z,4.23
2018-06-13T12:46:46.292Z,3.93
2018-06-13T12:49:15.228Z,3.67
2018-06-13T12:51:44.065Z,5.40
2018-06-13T12:54:12.871Z,3.47
2018-06-13T12:56:41.688Z,4.47
2018-06-13T12:59:10.930Z,4.20
2018-06-13T13:01:39.816Z,3.13
2018-06-13T13:04:08.647Z,3.40
2018-06-13T13:06:37.512Z,4.17
2018-06-13T13:09:10.180Z,3.67
2018-06-13T13:11:39.007Z,3.90
2018-06-13T13:14:07.820Z,5.00
2018-06-13T13:16:36.562Z,3.73
2018-06-13T13:19:05.784Z,4.03
2018-06-13T13:21:34.657Z,4.07
2018-06-13T13:24:03.500Z,4.83
2018-06-13T13:26:32.351Z,4.50
2018-06-13T13:29:01.511Z,5.60
2018-06-13T13:31:30.380Z,5.03
2018-06-13T13:33:59.257Z,5.27
2018-06-13T13:36:28.107Z,5.00
2018-06-13T13:38:57.045Z,5.23
2018-06-13T13:41:25.859Z,4.90
2018-06-13T13:43:54.771Z,4.83
2018-06-13T13:46:23.599Z,4.70
2018-06-13T13:48:52.767Z,5.60
2018-06-13T13:51:21.614Z,4.60
2018-06-13T13:53:50.512Z,4.50
2018-06-13T13:56:19.335Z,4.83
2018-06-13T13:58:48.279Z,5.10
2018-06-13T14:01:17.136Z,4.77
2018-06-13T14:03:45.983Z,4.57
2018-06-13T14:06:14.883Z,5.50
2018-06-13T14:08:44.325Z,5.20
2018-06-13T14:11:13.412Z,5.63
2018-06-13T14:13:42.352Z,4.37
2018-06-13T14:16:11.459Z,1.93
2018-06-13T14:18:40.360Z,1.97
2018-06-13T14:21:09.176Z,2.17
2018-06-13T14:23:38.103Z,2.47
2018-06-13T14:26:07.132Z,1.70
2018-06-13T14:28:36.010Z,2.70
2018-06-13T14:31:04.880Z,2.33
2018-06-13T14:33:33.763Z,2.10
2018-06-13T14:36:02.608Z,2.20
2018-06-13T14:38:31.573Z,3.97
2018-06-13T14:41:00.421Z,4.57
2018-06-13T14:43:29.290Z,3.30
2018-06-13T14:45:58.660Z,3.30
2018-06-13T14:48:27.630Z,3.40
2018-06-13T14:50:56.539Z,6.83
2018-06-13T14:53:25.400Z,4.70
2018-06-13T14:55:59.884Z,5.50
2018-06-13T14:58:29.161Z,5.33
2018-06-13T15:00:58.191Z,4.20
2018-06-13T15:03:27.073Z,5.30
2018-06-13T15:05:55.944Z,4.93
2018-06-13T15:08:25.295Z,3.40
2018-06-13T15:10:54.054Z,5.03
2018-06-13T15:13:22.998Z,3.70
2018-06-13T15:15:51.890Z,3.40
2018-06-13T15:18:20.759Z,3.57
2018-06-13T15:20:49.491Z,3.23
2018-06-13T15:23:18.896Z,4.97
2018-06-13T15:25:47.956Z,3.93
2018-06-13T15:28:17.931Z,3.73
2018-06-13T15:30:47.248Z,3.63
2018-06-13T15:33:17.668Z,3.37
2018-06-13T15:35:46.744Z,4.17
2018-06-13T15:38:15.604Z,3.70
2018-06-13T15:40:44.490Z,3.77
2018-06-13T15:43:13.984Z,3.43
2018-06-13T15:45:43.567Z,3.87
2018-06-13T15:48:12.590Z,3.97
2018-06-13T15:50:41.467Z,4.43
2018-06-13T15:53:10.350Z,4.80
2018-06-13T15:55:39.212Z,3.83
2018-06-13T15:58:08.226Z,5.13
2018-06-13T16:00:37.119Z,4.67
2018-06-13T16:03:06.069Z,4.10
2018-06-13T16:05:35.255Z,4.17
2018-06-13T16:08:04.222Z,4.53
2018-06-13T16:10:33.102Z,4.60
2018-06-13T16:13:04.891Z,4.57
2018-06-13T16:15:33.833Z,5.00
2018-06-13T16:18:02.735Z,4.07
2018-06-13T16:20:31.635Z,4.57
2018-06-13T16:23:00.491Z,4.67
2018-06-13T16:25:29.254Z,4.27
2018-06-13T16:27:58.216Z,3.73
2018-06-13T16:30:27.238Z,4.30
2018-06-13T16:32:56.133Z,5.50
2018-06-13T16:35:24.974Z,3.13
2018-06-13T16:37:53.989Z,2.97
2018-06-13T16:40:22.907Z,2.50
2018-06-13T16:42:51.776Z,2.90
2018-06-13T16:45:20.676Z,3.40
2018-06-13T16:47:49.548Z,3.50
2018-06-13T16:50:35.572Z,3.23
2018-06-13T16:53:17.196Z,3.33
2018-06-13T16:55:46.190Z,3.90
2018-06-13T16:58:15.026Z,4.53
2018-06-13T17:00:43.953Z,3.20
2018-06-13T17:03:12.849Z,4.47
2018-06-13T17:05:41.741Z,2.57
2018-06-13T17:08:11.035Z,3.47
2018-06-13T17:10:39.929Z,3.33
2018-06-13T17:13:08.902Z,3.50
2018-06-13T17:15:37.897Z,3.07
2018-06-13T17:18:06.746Z,3.50
2018-06-13T17:20:37.429Z,2.90
2018-06-13T17:23:06.642Z,2.73
2018-06-13T17:25:36.124Z,3.37
2018-06-13T17:28:05.356Z,2.20
2018-06-13T17:30:34.287Z,2.30
2018-06-13T17:33:03.184Z,3.23
2018-06-13T17:35:32.492Z,3.00
2018-06-13T17:38:02.576Z,2.43
2018-06-13T17:40:31.595Z,3.23
2018-06-13T17:43:00.816Z,3.50
2018-06-13T17:45:30.010Z,3.30
2018-06-13T17:47:59.765Z,2.30
2018-06-13T17:50:28.698Z,2.73
2018-06-13T17:52:58.543Z,2.93
2018-06-13T17:55:27.629Z,2.70
2018-06-13T17:57:56.800Z,2.53
2018-06-13T18:00:25.720Z,3.33
2018-06-13T18:02:54.578Z,2.57
2018-06-13T18:05:23.449Z,1.80
2018-06-13T18:07:52.550Z,1.70
2018-06-13T18:10:23.328Z,1.80
2018-06-13T18:12:52.092Z,1.77
2018-06-13T18:15:21.449Z,1.90
2018-06-13T18:17:50.388Z,1.83
2018-06-13T18:20:19.860Z,1.30
2018-06-13T18:22:49.506Z,1.70
2018-06-13T18:25:19.631Z,2.00
2018-06-13T18:27:49.372Z,1.70
2018-06-13T18:30:19.381Z,1.60
2018-06-13T18:32:48.815Z,1.47
2018-06-13T18:35:18.059Z,1.40
2018-06-13T18:37:46.979Z,1.77
2018-06-13T18:40:17.340Z,1.47
2018-06-13T18:42:47.877Z,1.80
2018-06-13T18:45:19.669Z,1.47
2018-06-13T18:47:49.048Z,1.60
2018-06-13T18:50:22.053Z,2.13
2018-06-13T18:52:51.997Z,1.53
2018-06-13T18:55:21.068Z,1.50
2018-06-13T18:57:50.089Z,1.17
2018-06-13T19:00:20.472Z,1.20
2018-06-13T19:02:49.565Z,1.30
2018-06-13T19:05:18.793Z,1.60
2018-06-13T19:07:48.056Z,1.67
2018-06-13T19:10:18.985Z,1.10
2018-06-13T19:12:49.040Z,1.10
2018-06-13T19:15:18.492Z,1.00
2018-06-13T19:17:47.492Z,1.20
2018-06-13T19:20:16.874Z,0.90
2018-06-13T19:22:46.129Z,1.00
2018-06-13T19:25:16.099Z,1.13
2018-06-13T19:27:45.632Z,1.17
2018-06-13T19:30:16.345Z,1.50
2018-06-13T19:32:45.477Z,1.00
2018-06-13T19:35:15.777Z,1.00
2018-06-13T19:37:45.505Z,1.57
2018-06-13T19:40:14.479Z,1.30
2018-06-13T19:42:52.593Z,1.33
2018-06-13T19:45:22.063Z,1.53
2018-06-13T19:47:57.045Z,1.20
2018-06-13T19:50:28.598Z,1.40
2018-06-13T19:53:02.992Z,1.73
2018-06-13T19:55:44.849Z,1.33
2018-06-13T19:58:14.065Z,1.80
2018-06-13T20:00:44.423Z,1.20
2018-06-13T20:03:19.690Z,1.37
2018-06-13T20:05:48.680Z,1.47
2018-06-13T20:08:18.705Z,1.90
2018-06-13T20:10:47.925Z,1.47
2018-06-13T20:15:24.996Z,1.17
2018-06-13T20:17:59.586Z,1.00
2018-06-13T20:20:45.555Z,1.20
2018-06-13T20:23:57.409Z,1.57
2018-06-13T20:26:31.963Z,1.90
2018-06-13T20:29:06.526Z,1.90
2018-06-13T20:31:36.842Z,1.73
2018-06-13T20:34:05.980Z,1.50
2018-06-13T20:36:35.115Z,1.93
2018-06-13T20:39:06.932Z,2.00
2018-06-13T20:41:35.860Z,1.53
2018-06-13T20:44:04.822Z,1.53
2018-06-13T20:46:34.551Z,2.47
2018-06-13T20:49:03.783Z,2.13
2018-06-13T20:51:32.745Z,2.43
2018-06-13T20:54:01.706Z,2.07
2018-06-13T20:56:30.761Z,2.40
2018-06-13T20:59:01.305Z,2.23
2018-06-13T21:01:30.510Z,2.50
2018-06-13T21:03:59.500Z,3.00
2018-06-13T21:06:28.522Z,2.70
2018-06-13T21:08:57.732Z,2.00
2018-06-13T21:11:26.829Z,2.90
2018-06-13T21:13:55.818Z,2.30
2018-06-13T21:16:25.341Z,2.60
2018-06-13T21:18:54.597Z,2.40
2018-06-13T21:21:23.471Z,2.40
2018-06-13T21:23:52.921Z,2.90
2018-06-13T21:26:22.260Z,2.93
2018-06-13T21:28:51.455Z,2.57
2018-06-13T21:31:20.676Z,3.70
2018-06-13T21:33:49.851Z,2.97
2018-06-13T21:36:19.100Z,2.90
2018-06-13T21:38:48.176Z,2.83
2018-06-13T21:41:17.367Z,2.83
2018-06-13T21:43:47.168Z,2.23
2018-06-13T21:46:16.288Z,2.17
2018-06-13T21:48:45.565Z,2.67
2018-06-13T21:51:14.724Z,2.57
2018-06-13T21:53:43.975Z,2.17
2018-06-13T21:56:13.126Z,2.57
2018-06-13T21:58:42.364Z,2.90
2018-06-13T22:01:11.678Z,2.20
2018-06-13T22:03:40.837Z,1.80
2018-06-13T22:06:10.054Z,2.20
2018-06-13T22:08:39.520Z,2.00
2018-06-13T22:11:08.593Z,1.80
2018-06-13T22:13:37.604Z,2.30
2018-06-13T22:16:06.543Z,1.73
2018-06-13T22:18:35.956Z,1.83
2018-06-13T22:21:05.192Z,1.33
2018-06-13T22:23:34.452Z,1.63
2018-06-13T22:26:03.445Z,1.67
2018-06-13T22:28:32.644Z,2.00
2018-06-13T22:31:01.761Z,1.73
2018-06-13T22:33:31.124Z,1.73
2018-06-13T22:36:00.661Z,1.37
2018-06-13T22:38:29.847Z,2.10
2018-06-13T22:40:59.152Z,1.63
2018-06-13T22:43:28.368Z,1.43
2018-06-13T22:45:57.267Z,1.83
2018-06-13T22:48:26.089Z,1.50
2018-06-13T22:50:55.461Z,1.43
2018-06-13T22:53:24.652Z,1.37
2018-06-13T22:55:53.814Z,1.60
2018-06-13T22:58:22.918Z,1.80
2018-06-13T23:01:09.937Z,1.50
2018-06-13T23:03:39.452Z,1.33
2018-06-13T23:06:09.620Z,1.73
2018-06-13T23:08:38.859Z,1.77
2018-06-13T23:11:08.575Z,1.00
2018-06-13T23:13:37.471Z,1.50
2018-06-13T23:16:06.675Z,1.30
2018-06-13T23:18:35.955Z,1.30
2018-06-13T23:21:04.872Z,1.40
2018-06-13T23:23:34.027Z,1.40
2018-06-13T23:26:02.922Z,1.40
2018-06-13T23:28:31.804Z,1.53
2018-06-13T23:31:01.136Z,1.30
2018-06-13T23:33:30.400Z,1.20
2018-06-13T23:35:59.257Z,1.20
2018-06-13T23:38:28.599Z,1.90
2018-06-13T23:40:57.448Z,1.33
2018-06-13T23:43:26.847Z,1.30
2018-06-13T23:45:55.771Z,1.77
2018-06-13T23:48:25.203Z,1.13
2018-06-13T23:50:54.488Z,1.97
2018-06-13T23:53:23.425Z,1.50
2018-06-13T23:55:52.640Z,1.37
2018-06-13T23:58:21.990Z,1.50
